createdAt,value
2018-08-06T00:00:10.226Z,78.80
2018-08-06T00:02:38.814Z,78.80
2018-08-06T00:05:07.609Z,78.90
2018-08-06T00:07:36.254Z,79.20
2018-08-06T00:10:07.369Z,79.40
2018-08-06T00:12:35.993Z,79.60
2018-08-06T00:15:06.500Z,79.70
2018-08-06T00:17:35.210Z,79.90
2018-08-06T00:20:04.298Z,80.20
2018-08-06T00:22:32.911Z,80.20
2018-08-06T00:25:01.570Z,80.10
2018-08-06T00:27:30.212Z,80.50
2018-08-06T00:29:58.917Z,80.80
2018-08-06T00:32:27.594Z,81.10
2018-08-06T00:34:56.298Z,81.30
2018-08-06T00:37:24.889Z,81.20
2018-08-06T00:39:53.846Z,81.20
2018-08-06T00:42:22.590Z,81.70
2018-08-06T00:44:51.246Z,81.60
2018-08-06T00:47:19.903Z,81.70
2018-08-06T00:49:48.540Z,82.00
2018-08-06T00:52:17.181Z,81.50
2018-08-06T00:54:45.851Z,81.60
2018-08-06T00:57:14.572Z,81.70
2018-08-06T00:59:43.360Z,81.60
2018-08-06T01:02:12.034Z,81.40
2018-08-06T01:04:40.707Z,81.60
2018-08-06T01:07:09.426Z,82.10
2018-08-06T01:09:38.045Z,82.10
2018-08-06T01:12:06.815Z,82.10
2018-08-06T01:14:35.559Z,82.00
2018-08-06T01:17:04.225Z,82.20
2018-08-06T01:19:32.903Z,81.90
2018-08-06T01:22:01.544Z,81.60
2018-08-06T01:24:30.166Z,81.60
2018-08-06T01:26:58.863Z,81.90
2018-08-06T01:29:27.573Z,81.90
2018-08-06T01:31:56.171Z,82.20
2018-08-06T01:34:24.871Z,82.50
2018-08-06T01:36:53.529Z,82.80
2018-08-06T01:39:22.190Z,83.00
2018-08-06T01:41:50.850Z,83.10
2018-08-06T01:44:19.462Z,83.40
2018-08-06T01:46:48.047Z,83.60
2018-08-06T01:49:16.551Z,83.80
2018-08-06T01:51:45.202Z,83.70
2018-08-06T01:54:13.947Z,83.60
2018-08-06T01:56:42.585Z,83.70
2018-08-06T01:59:11.255Z,83.70
2018-08-06T02:01:39.812Z,83.70
2018-08-06T02:04:08.411Z,83.80
2018-08-06T02:06:37.071Z,84.00
2018-08-06T02:09:07.307Z,84.40
2018-08-06T02:11:36.034Z,84.50
2018-08-06T02:14:04.973Z,84.50
2018-08-06T02:16:33.750Z,84.30
2018-08-06T02:19:02.411Z,84.30
2018-08-06T02:21:31.079Z,84.80
2018-08-06T02:23:59.709Z,84.90
2018-08-06T02:26:28.349Z,84.50
2018-08-06T02:28:57.049Z,84.40
2018-08-06T02:31:25.803Z,84.50
2018-08-06T02:33:54.527Z,84.80
2018-08-06T02:36:23.087Z,84.90
2018-08-06T02:38:51.641Z,84.90
2018-08-06T02:41:20.314Z,84.60
2018-08-06T02:43:49.035Z,84.40
2018-08-06T02:46:17.678Z,84.60
2018-08-06T02:48:46.216Z,84.90
2018-08-06T02:51:14.819Z,85.30
2018-08-06T02:53:43.443Z,85.30
2018-08-06T02:56:12.074Z,85.30
2018-08-06T02:58:40.731Z,85.50
2018-08-06T03:01:09.336Z,85.50
2018-08-06T03:03:37.951Z,85.30
2018-08-06T03:06:07.192Z,85.40
2018-08-06T03:08:35.779Z,85.50
2018-08-06T03:11:04.478Z,85.70
2018-08-06T03:13:33.166Z,86.30
2018-08-06T03:16:01.774Z,86.30
2018-08-06T03:18:30.373Z,86.30
2018-08-06T03:20:59.001Z,86.00
2018-08-06T03:23:27.619Z,86.00
2018-08-06T03:25:56.244Z,86.20
2018-08-06T03:28:24.899Z,86.40
2018-08-06T03:30:53.627Z,86.50
2018-08-06T03:33:22.266Z,86.50
2018-08-06T03:35:50.889Z,86.60
2018-08-06T03:38:19.602Z,86.70
2018-08-06T03:40:48.279Z,86.40
2018-08-06T03:43:16.904Z,86.00
2018-08-06T03:45:45.600Z,86.20
2018-08-06T03:48:14.297Z,85.50
2018-08-06T03:50:42.981Z,85.70
2018-08-06T03:53:11.682Z,86.40
2018-08-06T03:55:40.294Z,86.30
2018-08-06T03:58:09.018Z,86.70
2018-08-06T04:00:37.626Z,87.00
2018-08-06T04:03:06.328Z,87.10
2018-08-06T04:05:35.010Z,87.20
2018-08-06T04:08:03.678Z,87.40
2018-08-06T04:10:32.256Z,87.60
2018-08-06T04:13:00.852Z,87.60
2018-08-06T04:15:29.477Z,87.60
2018-08-06T04:17:58.131Z,87.90
2018-08-06T04:20:26.744Z,87.60
2018-08-06T04:22:55.349Z,87.80
2018-08-06T04:25:23.816Z,87.90
2018-08-06T04:27:52.554Z,87.80
2018-08-06T04:30:21.263Z,87.80
2018-08-06T04:32:49.922Z,87.40
2018-08-06T04:35:18.623Z,87.40
2018-08-06T04:37:47.283Z,87.40
2018-08-06T04:40:15.960Z,87.40
2018-08-06T04:42:44.662Z,87.30
2018-08-06T04:45:13.453Z,87.60
2018-08-06T04:47:42.551Z,87.30
2018-08-06T04:50:13.003Z,86.90
2018-08-06T04:52:41.627Z,86.80
2018-08-06T04:55:12.264Z,87.00
2018-08-06T04:57:41.168Z,87.30
2018-08-06T05:00:11.883Z,87.60
2018-08-06T05:02:40.810Z,87.90
2018-08-06T05:05:10.631Z,87.80
2018-08-06T05:07:39.347Z,87.90
2018-08-06T05:10:07.999Z,87.30
2018-08-06T05:12:36.746Z,87.10
2018-08-06T05:15:05.910Z,87.10
2018-08-06T05:17:34.662Z,86.90
2018-08-06T05:20:03.325Z,86.90
2018-08-06T05:22:32.027Z,86.60
2018-08-06T05:25:00.694Z,85.80
2018-08-06T05:27:38.992Z,85.80
2018-08-06T05:30:09.546Z,85.50
2018-08-06T05:32:38.264Z,85.20
2018-08-06T05:35:07.092Z,84.60
2018-08-06T05:37:35.850Z,84.20
2018-08-06T05:40:05.122Z,84.30
2018-08-06T05:42:33.871Z,82.70
2018-08-06T05:45:02.603Z,82.60
2018-08-06T05:47:31.224Z,82.00
2018-08-06T05:49:59.874Z,81.20
2018-08-06T05:52:28.497Z,81.10
2018-08-06T05:54:57.158Z,80.70
2018-08-06T05:57:25.773Z,80.20
2018-08-06T05:59:54.489Z,79.90
2018-08-06T06:02:23.176Z,79.90
2018-08-06T06:04:51.799Z,79.70
2018-08-06T06:07:20.509Z,79.70
2018-08-06T06:09:49.191Z,79.10
2018-08-06T06:12:17.844Z,78.10
2018-08-06T06:14:46.475Z,77.10
2018-08-06T06:17:15.075Z,77.20
2018-08-06T06:19:43.736Z,77.60
2018-08-06T06:22:12.344Z,76.80
2018-08-06T06:24:41.000Z,77.30
2018-08-06T06:27:09.690Z,77.00
2018-08-06T06:29:38.339Z,76.00
2018-08-06T06:32:07.100Z,75.60
2018-08-06T06:34:35.849Z,75.80
2018-08-06T06:37:04.434Z,76.30
2018-08-06T06:39:32.995Z,75.50
2018-08-06T06:42:01.655Z,75.70
2018-08-06T06:44:30.335Z,75.30
2018-08-06T06:46:58.973Z,74.10
2018-08-06T06:49:27.544Z,73.80
2018-08-06T06:51:56.137Z,74.10
2018-08-06T06:54:24.734Z,73.50
2018-08-06T06:56:53.321Z,72.30
2018-08-06T06:59:38.872Z,72.30
2018-08-06T07:02:07.522Z,71.50
2018-08-06T07:04:36.529Z,71.90
2018-08-06T07:07:17.338Z,71.30
2018-08-06T07:09:45.952Z,70.90
2018-08-06T07:12:14.573Z,71.20
2018-08-06T07:14:43.288Z,69.20
2018-08-06T07:17:13.133Z,69.20
2018-08-06T07:19:42.653Z,68.60
2018-08-06T07:22:18.257Z,68.20
2018-08-06T07:24:48.287Z,67.20
2018-08-06T07:27:18.183Z,66.60
2018-08-06T07:29:48.726Z,66.90
2018-08-06T07:32:18.934Z,66.00
2018-08-06T07:34:49.831Z,65.20
2018-08-06T07:37:18.949Z,65.30
2018-08-06T07:39:48.267Z,64.60
2018-08-06T07:42:16.921Z,64.60
2018-08-06T07:44:49.242Z,64.50
2018-08-06T07:47:17.851Z,64.30
2018-08-06T07:49:46.531Z,64.00
2018-08-06T07:52:15.163Z,63.00
2018-08-06T07:54:43.715Z,63.20
2018-08-06T07:57:12.339Z,62.80
2018-08-06T07:59:40.995Z,62.00
2018-08-06T08:02:09.560Z,62.40
2018-08-06T08:04:38.267Z,61.40
2018-08-06T08:07:08.078Z,62.90
2018-08-06T08:09:37.825Z,61.70
2018-08-06T08:12:20.570Z,62.20
2018-08-06T08:14:50.011Z,61.20
2018-08-06T08:17:19.786Z,61.20
2018-08-06T08:20:06.737Z,60.60
2018-08-06T08:22:35.219Z,58.60
2018-08-06T08:25:03.859Z,58.50
2018-08-06T08:27:32.450Z,58.80
2018-08-06T08:30:01.088Z,58.90
2018-08-06T08:32:29.765Z,58.10
2018-08-06T08:34:58.382Z,58.50
2018-08-06T08:37:27.107Z,58.90
2018-08-06T08:39:55.793Z,58.90
2018-08-06T08:42:24.835Z,58.60
2018-08-06T08:44:53.708Z,59.10
2018-08-06T08:47:22.432Z,58.50
2018-08-06T08:49:51.139Z,58.40
2018-08-06T08:52:20.015Z,58.50
2018-08-06T08:54:48.869Z,57.40
2018-08-06T08:57:17.623Z,57.40
2018-08-06T08:59:46.231Z,56.90
2018-08-06T09:02:15.114Z,56.30
2018-08-06T09:04:43.754Z,57.00
2018-08-06T09:07:12.384Z,56.70
2018-08-06T09:09:41.627Z,56.50
2018-08-06T09:12:11.610Z,55.60
2018-08-06T09:14:40.655Z,55.70
2018-08-06T09:17:09.552Z,54.30
2018-08-06T09:19:38.627Z,53.90
2018-08-06T09:22:09.489Z,52.60
2018-08-06T09:24:38.897Z,54.00
2018-08-06T09:27:09.386Z,53.80
2018-08-06T09:29:39.358Z,54.60
2018-08-06T09:32:08.474Z,54.10
2018-08-06T09:34:37.442Z,53.70
2018-08-06T09:37:07.001Z,53.90
2018-08-06T09:39:36.268Z,53.80
2018-08-06T09:42:07.987Z,54.20
2018-08-06T09:44:36.814Z,54.00
2018-08-06T09:47:06.589Z,54.20
2018-08-06T09:49:35.549Z,53.30
2018-08-06T09:52:04.374Z,52.60
2018-08-06T09:54:33.373Z,51.50
2018-08-06T09:57:03.095Z,51.40
2018-08-06T09:59:31.895Z,51.70
2018-08-06T10:02:00.758Z,50.70
2018-08-06T10:04:30.052Z,52.80
2018-08-06T10:07:00.622Z,51.40
2018-08-06T10:09:29.576Z,51.20
2018-08-06T10:11:58.368Z,51.60
2018-08-06T10:14:27.857Z,52.00
2018-08-06T10:16:57.990Z,50.30
2018-08-06T10:19:27.009Z,50.00
2018-08-06T10:21:55.842Z,50.00
2018-08-06T10:24:24.837Z,50.00
2018-08-06T10:26:57.622Z,49.60
2018-08-06T10:29:28.320Z,49.20
2018-08-06T10:31:57.370Z,48.30
2018-08-06T10:34:28.792Z,48.40
2018-08-06T10:36:57.566Z,49.00
2018-08-06T10:39:27.621Z,49.50
2018-08-06T10:41:56.672Z,49.40
2018-08-06T10:44:25.838Z,49.40
2018-08-06T10:46:55.869Z,48.20
2018-08-06T10:49:25.996Z,49.20
2018-08-06T10:52:00.960Z,48.40
2018-08-06T10:54:29.813Z,47.60
2018-08-06T10:56:58.975Z,47.70
2018-08-06T10:59:28.479Z,47.30
2018-08-06T11:01:58.022Z,46.70
2018-08-06T11:04:26.836Z,47.00
2018-08-06T11:06:55.386Z,47.20
2018-08-06T11:09:24.092Z,46.60
2018-08-06T11:11:52.770Z,46.40
2018-08-06T11:14:21.577Z,46.00
2018-08-06T11:16:50.406Z,45.90
2018-08-06T11:19:19.193Z,46.40
2018-08-06T11:21:47.776Z,46.80
2018-08-06T11:24:16.497Z,46.50
2018-08-06T11:26:45.445Z,46.40
2018-08-06T11:29:14.146Z,47.10
2018-08-06T11:31:42.711Z,47.20
2018-08-06T11:34:11.390Z,47.00
2018-08-06T11:36:40.007Z,46.40
2018-08-06T11:39:10.180Z,46.40
2018-08-06T11:41:38.786Z,45.90
2018-08-06T11:44:07.594Z,45.20
2018-08-06T11:46:36.343Z,46.40
2018-08-06T11:49:05.165Z,46.50
2018-08-06T11:51:33.802Z,47.00
2018-08-06T11:54:02.333Z,46.60
2018-08-06T11:56:31.001Z,46.20
2018-08-06T11:59:01.588Z,45.80
2018-08-06T12:01:30.142Z,46.80
2018-08-06T12:03:58.674Z,46.10
2018-08-06T12:06:41.642Z,45.80
2018-08-06T12:09:10.422Z,45.90
2018-08-06T12:11:39.633Z,46.00
2018-08-06T12:14:08.204Z,46.90
2018-08-06T12:16:36.778Z,47.00
2018-08-06T12:19:05.354Z,46.50
2018-08-06T12:21:33.904Z,45.90
2018-08-06T12:24:02.466Z,46.20
2018-08-06T12:26:31.008Z,45.00
2018-08-06T12:28:59.583Z,45.00
2018-08-06T12:31:28.236Z,44.70
2018-08-06T12:33:58.825Z,43.60
2018-08-06T12:36:27.365Z,43.40
2018-08-06T12:39:03.486Z,43.40
2018-08-06T12:41:32.030Z,44.40
2018-08-06T12:44:00.529Z,44.80
2018-08-06T12:46:29.126Z,44.20
2018-08-06T12:48:57.741Z,44.30
2018-08-06T12:51:26.361Z,44.00
2018-08-06T12:53:55.337Z,43.80
2018-08-06T12:56:24.107Z,44.60
2018-08-06T12:58:52.838Z,45.20
2018-08-06T13:01:21.411Z,44.50
2018-08-06T13:03:50.130Z,44.00
2018-08-06T13:06:18.787Z,43.60
2018-08-06T13:08:47.316Z,43.40
2018-08-06T13:11:16.221Z,43.10
2018-08-06T13:13:44.768Z,43.40
2018-08-06T13:16:13.308Z,43.00
2018-08-06T13:18:41.877Z,42.40
2018-08-06T13:21:10.431Z,42.40
2018-08-06T13:23:44.205Z,41.30
2018-08-06T13:26:12.959Z,41.30
2018-08-06T13:28:41.784Z,41.00
2018-08-06T13:31:10.659Z,40.20
2018-08-06T13:33:39.520Z,39.50
2018-08-06T13:36:08.307Z,40.00
2018-08-06T13:38:37.042Z,39.40
2018-08-06T13:41:05.832Z,38.00
2018-08-06T13:43:34.605Z,37.50
2018-08-06T13:46:03.416Z,38.40
2018-08-06T13:48:32.249Z,37.30
2018-08-06T13:51:01.040Z,38.40
2018-08-06T13:53:29.931Z,37.10
2018-08-06T13:55:58.818Z,36.60
2018-08-06T13:58:27.607Z,37.20
2018-08-06T14:00:56.470Z,36.80
2018-08-06T14:03:25.325Z,36.90
2018-08-06T14:05:54.207Z,36.20
2018-08-06T14:08:23.080Z,35.90
2018-08-06T14:10:51.945Z,35.90
2018-08-06T14:13:20.806Z,35.80
2018-08-06T14:15:49.347Z,35.40
2018-08-06T14:18:18.035Z,35.90
2018-08-06T14:20:46.678Z,36.80
2018-08-06T14:23:15.262Z,36.30
2018-08-06T14:25:43.787Z,35.20
2018-08-06T14:28:12.350Z,35.10
2018-08-06T14:30:40.924Z,35.20
2018-08-06T14:33:09.498Z,35.30
2018-08-06T14:35:38.077Z,34.40
2018-08-06T14:38:06.660Z,35.20
2018-08-06T14:40:36.570Z,37.20
2018-08-06T14:43:05.244Z,36.50
2018-08-06T14:45:33.767Z,36.90
2018-08-06T14:48:02.375Z,36.90
2018-08-06T14:50:30.873Z,36.60
2018-08-06T14:52:59.475Z,37.80
2018-08-06T14:55:28.034Z,38.90
2018-08-06T14:57:56.634Z,39.30
2018-08-06T15:00:25.220Z,39.20
2018-08-06T15:02:54.142Z,37.80
2018-08-06T15:05:22.763Z,36.30
2018-08-06T15:07:51.389Z,37.30
2018-08-06T15:10:19.969Z,38.10
2018-08-06T15:12:48.627Z,38.80
2018-08-06T15:15:18.062Z,40.40
2018-08-06T15:17:47.023Z,40.70
2018-08-06T15:20:16.803Z,41.40
2018-08-06T15:22:45.730Z,41.10
2018-08-06T15:25:17.914Z,40.80
2018-08-06T15:27:46.796Z,41.30
2018-08-06T15:30:15.536Z,41.40
2018-08-06T15:32:44.123Z,40.00
2018-08-06T15:35:13.280Z,39.80
2018-08-06T15:37:42.822Z,40.50
2018-08-06T15:40:13.813Z,41.10
2018-08-06T15:42:42.705Z,41.90
2018-08-06T15:45:12.145Z,41.60
2018-08-06T15:47:41.431Z,41.40
2018-08-06T15:50:12.063Z,41.30
2018-08-06T15:52:40.610Z,41.30
2018-08-06T15:55:09.543Z,41.40
2018-08-06T15:57:38.144Z,39.20
2018-08-06T16:00:08.813Z,40.60
2018-08-06T16:02:37.269Z,41.00
2018-08-06T16:05:06.698Z,42.40
2018-08-06T16:07:35.194Z,43.30
2018-08-06T16:10:03.711Z,44.40
2018-08-06T16:12:32.493Z,43.80
2018-08-06T16:15:01.016Z,43.80
2018-08-06T16:17:29.488Z,43.70
2018-08-06T16:19:57.946Z,42.80
2018-08-06T16:22:26.372Z,42.10
2018-08-06T16:24:54.873Z,41.00
2018-08-06T16:27:23.342Z,41.30
2018-08-06T16:29:51.833Z,40.80
2018-08-06T16:32:20.424Z,39.50
2018-08-06T16:34:48.879Z,38.90
2018-08-06T16:37:17.461Z,38.20
2018-08-06T16:39:45.904Z,37.60
2018-08-06T16:42:14.325Z,38.30
2018-08-06T16:44:42.756Z,38.40
2018-08-06T16:47:11.213Z,40.20
2018-08-06T16:49:39.661Z,40.40
2018-08-06T16:52:08.250Z,40.20
2018-08-06T16:54:36.747Z,40.20
2018-08-06T16:57:05.318Z,40.50
2018-08-06T16:59:33.899Z,39.60
2018-08-06T17:02:02.474Z,39.50
2018-08-06T17:04:31.151Z,38.70
2018-08-06T17:06:59.669Z,37.70
2018-08-06T17:09:28.237Z,38.80
2018-08-06T17:11:56.849Z,39.20
2018-08-06T17:14:25.455Z,40.40
2018-08-06T17:16:54.090Z,41.00
2018-08-06T17:19:22.705Z,40.10
2018-08-06T17:21:51.318Z,40.90
2018-08-06T17:24:19.825Z,41.70
2018-08-06T17:26:48.414Z,41.40
2018-08-06T17:29:16.931Z,41.70
2018-08-06T17:31:45.501Z,41.80
2018-08-06T17:34:14.098Z,41.70
2018-08-06T17:36:42.691Z,42.30
2018-08-06T17:39:11.901Z,42.60
2018-08-06T17:41:40.722Z,42.90
2018-08-06T17:44:09.445Z,43.60
2018-08-06T17:46:38.015Z,44.10
2018-08-06T17:49:06.697Z,46.60
2018-08-06T17:51:35.238Z,46.80
2018-08-06T17:54:03.878Z,47.90
2018-08-06T17:56:32.502Z,48.10
2018-08-06T17:59:01.008Z,48.30
2018-08-06T18:01:29.611Z,48.20
2018-08-06T18:03:58.167Z,47.70
2018-08-06T18:06:26.702Z,47.10
2018-08-06T18:08:55.306Z,47.60
2018-08-06T18:11:23.924Z,48.20
2018-08-06T18:13:52.454Z,48.60
2018-08-06T18:16:21.091Z,50.40
2018-08-06T18:18:49.724Z,50.80
2018-08-06T18:21:18.309Z,51.50
2018-08-06T18:23:46.902Z,52.00
2018-08-06T18:26:15.508Z,52.10
2018-08-06T18:28:44.124Z,52.60
2018-08-06T18:31:12.787Z,51.90
2018-08-06T18:33:41.370Z,52.10
2018-08-06T18:36:09.983Z,53.70
2018-08-06T18:38:38.586Z,53.70
2018-08-06T18:41:07.189Z,53.80
2018-08-06T18:43:35.742Z,54.90
2018-08-06T18:46:04.357Z,55.60
2018-08-06T18:48:32.987Z,56.50
2018-08-06T18:51:01.623Z,57.40
2018-08-06T18:53:30.230Z,57.50
2018-08-06T18:55:58.904Z,58.40
2018-08-06T18:58:27.518Z,58.40
2018-08-06T19:00:56.096Z,58.70
2018-08-06T19:03:24.781Z,59.20
2018-08-06T19:05:53.375Z,59.80
2018-08-06T19:08:21.985Z,59.70
2018-08-06T19:10:50.506Z,59.60
2018-08-06T19:13:24.349Z,61.00
2018-08-06T19:15:52.955Z,61.50
2018-08-06T19:18:26.911Z,61.90
2018-08-06T19:20:55.523Z,62.40
2018-08-06T19:23:24.171Z,63.00
2018-08-06T19:25:52.807Z,63.50
2018-08-06T19:28:21.425Z,64.30
2018-08-06T19:30:55.190Z,65.20
2018-08-06T19:33:23.767Z,65.40
2018-08-06T19:35:52.422Z,64.80
2018-08-06T19:38:21.119Z,63.90
2018-08-06T19:40:49.691Z,63.70
2018-08-06T19:43:23.393Z,64.00
2018-08-06T19:46:00.786Z,64.30
2018-08-06T19:48:29.480Z,65.00
2018-08-06T19:50:58.077Z,65.60
2018-08-06T19:53:26.761Z,66.50
2018-08-06T19:56:00.512Z,66.60
2018-08-06T19:58:29.062Z,66.20
2018-08-06T20:00:57.689Z,66.90
2018-08-06T20:03:26.342Z,67.60
2018-08-06T20:05:54.897Z,67.90
2018-08-06T20:08:23.474Z,67.90
2018-08-06T20:10:52.259Z,67.80
2018-08-06T20:13:20.943Z,67.80
2018-08-06T20:15:49.572Z,67.20
2018-08-06T20:18:18.275Z,67.40
2018-08-06T20:20:46.867Z,68.00
2018-08-06T20:23:15.717Z,68.50
2018-08-06T20:25:44.364Z,68.70
2018-08-06T20:28:13.042Z,68.80
2018-08-06T20:30:41.719Z,68.70
2018-08-06T20:33:10.375Z,68.10
2018-08-06T20:35:39.015Z,67.80
2018-08-06T20:38:07.734Z,67.90
2018-08-06T20:40:36.400Z,68.20
2018-08-06T20:43:04.973Z,68.20
2018-08-06T20:45:33.601Z,69.10
2018-08-06T20:48:02.313Z,69.90
2018-08-06T20:50:30.888Z,70.10
2018-08-06T20:52:59.612Z,70.20
2018-08-06T20:55:28.186Z,69.90
2018-08-06T20:57:56.759Z,70.00
2018-08-06T21:00:26.158Z,70.50
2018-08-06T21:02:54.928Z,70.50
2018-08-06T21:05:23.468Z,70.80
2018-08-06T21:07:51.998Z,70.90
2018-08-06T21:10:21.071Z,71.00
2018-08-06T21:12:49.986Z,71.10
2018-08-06T21:15:18.777Z,71.50
2018-08-06T21:17:47.402Z,71.70
2018-08-06T21:20:18.235Z,71.50
2018-08-06T21:22:48.019Z,71.40
2018-08-06T21:25:16.909Z,71.90
2018-08-06T21:27:46.706Z,72.00
2018-08-06T21:30:16.893Z,72.60
2018-08-06T21:32:50.408Z,73.10
2018-08-06T21:35:20.088Z,73.50
2018-08-06T21:37:49.844Z,74.20
2018-08-06T21:40:19.146Z,74.50
2018-08-06T21:42:48.106Z,74.60
2018-08-06T21:45:16.832Z,74.80
2018-08-06T21:47:45.598Z,75.00
2018-08-06T21:50:14.748Z,75.30
2018-08-06T21:52:43.377Z,75.40
2018-08-06T21:55:12.206Z,75.40
2018-08-06T21:57:40.854Z,75.40
2018-08-06T22:00:19.347Z,75.60
2018-08-06T22:02:47.870Z,75.90
2018-08-06T22:05:16.491Z,76.20
2018-08-06T22:07:45.174Z,76.50
2018-08-06T22:10:13.951Z,76.60
2018-08-06T22:12:42.572Z,76.70
2018-08-06T22:15:11.270Z,76.40
2018-08-06T22:17:39.874Z,76.30
2018-08-06T22:20:08.426Z,76.20
2018-08-06T22:22:37.030Z,76.30
2018-08-06T22:25:05.711Z,76.60
2018-08-06T22:27:34.394Z,76.90
2018-08-06T22:30:03.066Z,76.90
2018-08-06T22:32:31.721Z,76.80
2018-08-06T22:35:00.371Z,76.50
2018-08-06T22:37:29.024Z,76.50
2018-08-06T22:39:57.593Z,77.00
2018-08-06T22:42:26.261Z,77.40
2018-08-06T22:44:54.878Z,77.60
2018-08-06T22:47:23.473Z,76.80
2018-08-06T22:49:52.103Z,77.00
2018-08-06T22:52:20.736Z,77.70
2018-08-06T22:54:49.502Z,78.50
2018-08-06T22:57:18.207Z,78.80
2018-08-06T22:59:46.827Z,79.10
2018-08-06T23:02:15.392Z,79.50
2018-08-06T23:04:44.090Z,79.50
2018-08-06T23:07:12.730Z,79.70
2018-08-06T23:09:41.296Z,79.50
2018-08-06T23:12:10.004Z,79.10
2018-08-06T23:14:38.565Z,79.40
2018-08-06T23:17:07.216Z,79.70
2018-08-06T23:19:35.848Z,79.50
2018-08-06T23:22:04.541Z,79.70
2018-08-06T23:24:33.094Z,79.80
2018-08-06T23:27:01.734Z,80.00
2018-08-06T23:29:30.345Z,80.00
2018-08-06T23:31:58.995Z,80.30
2018-08-06T23:34:27.562Z,80.60
2018-08-06T23:36:56.155Z,80.60
2018-08-06T23:39:24.762Z,80.70
2018-08-06T23:41:53.365Z,81.10
2018-08-06T23:44:21.983Z,81.00
2018-08-06T23:46:50.585Z,81.10
2018-08-06T23:49:19.279Z,81.10
2018-08-06T23:51:47.893Z,81.40
2018-08-06T23:54:16.539Z,81.50
2018-08-06T23:56:45.116Z,81.70
2018-08-06T23:59:13.767Z,82.10
